Time;durP1;ratioP1;P1;durP2;ratioP2;P2;SDS_P1;SDS_P2;PMS_P1;PMS_P2;Temp;Humidity;BMP_temperature;BMP_pressure;BME280_temperature;BME280_humidity;BME280_pressure;Samples;Min_cycle;Max_cycle;Signal;HPM_P1;HPM_P2
2021/12/10 00:01:57;;;;;;;8.63;2.20;;;;;;;1.54;76.39;95133.88;5108554;28;20541;-72
2021/12/10 00:04:29;;;;;;;8.93;2.55;;;;;;;1.51;76.51;95124.53;5107516;28;20094;-72
2021/12/10 00:06:59;;;;;;;5.05;2.10;;;;;;;1.52;76.36;95123.44;5099766;28;20801;-72
2021/12/10 00:09:32;;;;;;;4.57;2.25;;;;;;;1.50;76.19;95119.44;5107181;28;20048;-72
2021/12/10 00:12:06;;;;;;;5.93;2.00;;;;;;;1.54;76.41;95117.78;5108790;28;20437;-72
2021/12/10 00:14:33;;;;;;;7.47;2.10;;;;;;;1.57;75.96;95111.84;5107754;28;20534;-73
2021/12/10 00:17:03;;;;;;;6.68;1.92;;;;;;;1.60;75.92;95103.19;5108833;28;20070;-72
2021/12/10 00:19:35;;;;;;;5.05;1.83;;;;;;;1.62;75.92;95101.03;5108485;28;20456;-72
2021/12/10 00:22:08;;;;;;;5.65;1.60;;;;;;;1.59;75.76;95092.75;5107466;28;20113;-72
2021/12/10 00:24:36;;;;;;;7.85;2.10;;;;;;;1.58;76.07;95097.34;5108528;28;20130;-72
2021/12/10 00:27:05;;;;;;;6.68;1.98;;;;;;;1.59;76.10;95084.72;5106744;28;20044;-72
2021/12/10 00:29:33;;;;;;;7.43;2.17;;;;;;;1.60;76.30;95084.41;5108698;28;20116;-72
2021/12/10 00:32:07;;;;;;;4.03;1.80;;;;;;;1.61;76.30;95080.63;5108473;28;20047;-72
2021/12/10 00:34:38;;;;;;;6.43;1.90;;;;;;;1.60;76.02;95078.25;5107218;28;20047;-72
2021/12/10 00:37:13;;;;;;;5.72;1.77;;;;;;;1.61;76.08;95063.75;5107690;28;20051;-71
2021/12/10 00:39:42;;;;;;;6.82;1.65;;;;;;;1.65;76.51;95062.06;5108361;28;20040;-72
2021/12/10 00:42:13;;;;;;;7.15;1.92;;;;;;;1.63;76.12;95058.91;5107554;28;20044;-72
2021/12/10 00:44:40;;;;;;;7.90;1.92;;;;;;;1.64;76.02;95058.59;5108648;28;20047;-72
2021/12/10 00:47:06;;;;;;;4.38;1.60;;;;;;;1.65;75.79;95052.13;5107555;28;20054;-72
2021/12/10 00:49:35;;;;;;;6.05;1.98;;;;;;;1.62;75.69;95055.44;5108622;28;20040;-72
2021/12/10 00:52:03;;;;;;;8.38;2.03;;;;;;;1.66;75.86;95044.88;5107835;28;20050;-72
2021/12/10 00:54:29;;;;;;;6.68;1.70;;;;;;;1.68;75.77;95035.47;5108282;28;20066;-72
2021/12/10 00:56:56;;;;;;;12.32;1.85;;;;;;;1.67;75.58;95039.25;5108144;28;20044;-72
2021/12/10 00:59:22;;;;;;;8.18;1.90;;;;;;;1.64;75.78;95034.44;5107533;28;20058;-72
2021/12/10 01:01:50;;;;;;;5.28;1.58;;;;;;;1.62;75.62;95020.53;5108323;28;20043;-72
2021/12/10 01:04:21;;;;;;;11.63;2.05;;;;;;;1.62;75.30;95015.19;5107745;28;20048;-72
2021/12/10 01:06:51;;;;;;;5.88;2.30;;;;;;;1.60;75.41;95011.97;5108038;28;20051;-72
2021/12/10 01:09:21;;;;;;;7.32;1.70;;;;;;;1.63;75.74;95011.41;5107775;28;20410;-72
2021/12/10 01:11:51;;;;;;;6.65;1.73;;;;;;;1.63;75.26;95007.91;5108331;28;20039;-72
2021/12/10 01:14:24;;;;;;;7.53;1.60;;;;;;;1.64;75.09;95007.63;5107733;28;20735;-72
2021/12/10 01:25:33;;;;;;;7.35;1.60;;;;;;;1.73;75.35;94983.59;5107574;28;20556;-72
2021/12/10 01:28:00;;;;;;;4.13;1.48;;;;;;;1.78;75.28;94978.94;5107950;28;20043;-72
2021/12/10 01:30:32;;;;;;;5.60;1.80;;;;;;;1.82;75.33;94982.59;5108059;28;20054;-72
2021/12/10 01:33:01;;;;;;;7.57;1.80;;;;;;;1.83;74.42;94973.47;5108273;28;20529;-72
2021/12/10 01:35:31;;;;;;;7.20;1.60;;;;;;;1.83;74.66;94962.75;5107472;28;20073;-72
2021/12/10 01:38:01;;;;;;;5.22;1.85;;;;;;;1.85;74.65;94975.84;5107988;28;20055;-72
2021/12/10 01:40:29;;;;;;;6.40;1.70;;;;;;;1.87;74.42;94965.59;5107635;28;20046;-72
2021/12/10 01:43:05;;;;;;;5.07;1.63;;;;;;;1.87;74.50;94970.19;5108112;28;20044;-72
2021/12/10 01:45:33;;;;;;;4.38;1.55;;;;;;;1.86;74.19;94955.19;5107497;28;20043;-72
2021/12/10 01:48:04;;;;;;;8.38;2.13;;;;;;;1.82;74.25;94950.38;5107638;28;20050;-72
2021/12/10 01:50:33;;;;;;;6.68;1.60;;;;;;;1.79;74.47;94940.25;5107842;28;20051;-72
2021/12/10 01:53:06;;;;;;;5.75;1.67;;;;;;;1.80;74.53;94941.84;5107777;28;20044;-72
2021/12/10 01:55:36;;;;;;;7.70;1.98;;;;;;;1.80;74.63;94931.09;5107788;28;20546;-72
2021/12/10 01:58:04;;;;;;;6.13;1.85;;;;;;;1.79;74.81;94929.53;5107270;28;20534;-72
2021/12/10 02:00:33;;;;;;;4.45;1.60;;;;;;;1.78;75.14;94922.56;5107735;28;20398;-72
2021/12/10 02:03:00;;;;;;;8.90;1.90;;;;;;;1.80;74.50;94920.38;5107494;28;20040;-72
2021/12/10 02:05:27;;;;;;;5.85;1.98;;;;;;;1.80;74.77;94909.63;5110422;28;20834;-72
2021/12/10 02:07:54;;;;;;;3.90;1.40;;;;;;;1.80;74.60;94901.59;5111682;28;20058;-71
2021/12/10 02:10:24;;;;;;;5.75;2.00;;;;;;;1.79;74.53;94891.94;5111143;28;20094;-71
2021/12/10 02:12:51;;;;;;;6.18;1.70;;;;;;;1.79;74.55;94891.94;5111852;28;20052;-71
2021/12/10 02:15:17;;;;;;;4.13;1.95;;;;;;;1.77;74.19;94887.97;5110979;28;20043;-71
2021/12/10 02:17:48;;;;;;;5.93;1.77;;;;;;;1.75;74.69;94882.91;5111326;28;20054;-71
2021/12/10 02:20:18;;;;;;;3.53;1.70;;;;;;;1.75;74.99;94880.22;5110855;28;20055;-71
2021/12/10 02:22:47;;;;;;;8.45;2.08;;;;;;;1.78;74.37;94876.16;5111524;28;20048;-71
2021/12/10 02:25:18;;;;;;;4.38;1.90;;;;;;;1.76;74.57;94870.28;5111028;28;20059;-71
2021/12/10 02:27:45;;;;;;;4.72;1.50;;;;;;;1.74;74.51;94862.53;5111220;28;20040;-71
2021/12/10 02:30:14;;;;;;;5.97;1.60;;;;;;;1.74;74.69;94862.53;5110695;28;20051;-72
2021/12/10 02:32:41;;;;;;;3.47;1.33;;;;;;;1.72;74.52;94854.00;5111080;28;20043;-71
2021/12/10 02:35:12;;;;;;;5.55;1.88;;;;;;;1.70;74.72;94850.78;5110841;28;20047;-71
2021/12/10 02:37:38;;;;;;;4.55;1.77;;;;;;;1.67;74.52;94851.41;5111027;28;20040;-71
2021/12/10 02:40:09;;;;;;;4.55;1.42;;;;;;;1.64;74.57;94838.56;5110610;28;20048;-72
2021/12/10 02:42:36;;;;;;;5.68;1.70;;;;;;;1.63;74.91;94833.50;5110385;28;20039;-71
2021/12/10 02:45:04;;;;;;;4.20;1.92;;;;;;;1.63;75.15;94826.25;5110198;28;20050;-72
2021/12/10 02:47:30;;;;;;;7.40;2.92;;;;;;;1.61;75.16;94815.00;5110840;28;20070;-71
2021/12/10 02:49:57;;;;;;;4.75;1.67;;;;;;;1.59;75.48;94814.53;5110798;28;20043;-72
2021/12/10 02:52:25;;;;;;;5.10;1.70;;;;;;;1.56;75.44;94801.69;5110501;28;20051;-72
2021/12/10 02:54:52;;;;;;;3.47;1.60;;;;;;;1.51;75.66;94796.44;5110859;28;20043;-72
2021/12/10 02:57:20;;;;;;;4.47;1.90;;;;;;;1.47;75.84;94792.78;5109863;28;20498;-72
2021/12/10 02:59:47;;;;;;;5.75;1.60;;;;;;;1.40;76.06;94784.31;5110746;28;20071;-72
2021/12/10 03:02:17;;;;;;;4.75;1.70;;;;;;;1.34;76.17;94782.84;5110327;28;20058;-72
2021/12/10 03:04:44;;;;;;;7.22;2.20;;;;;;;1.26;76.19;94787.81;5111673;28;20054;-72
2021/12/10 03:07:14;;;;;;;3.85;1.63;;;;;;;1.21;76.34;94781.75;5113293;28;20044;-72
2021/12/10 03:09:43;;;;;;;5.68;1.85;;;;;;;1.14;76.43;94774.06;5113541;28;20397;-72
2021/12/10 03:12:10;;;;;;;6.07;1.63;;;;;;;1.03;76.49;94761.94;5113055;28;20059;-71
2021/12/10 03:14:41;;;;;;;6.07;2.13;;;;;;;0.94;76.81;94756.50;5113124;28;20051;-72
2021/12/10 03:17:11;;;;;;;4.20;1.52;;;;;;;0.88;76.91;94754.97;5111563;28;20040;-70
2021/12/10 03:19:38;;;;;;;6.30;1.55;;;;;;;0.84;77.02;94764.72;5113296;28;20047;-70
2021/12/10 03:22:06;;;;;;;4.00;1.42;;;;;;;0.77;77.08;94756.25;5112949;28;20047;-70
2021/12/10 03:24:34;;;;;;;3.00;1.48;;;;;;;0.68;77.50;94753.47;5113136;28;20402;-70
2021/12/10 03:27:03;;;;;;;3.50;1.25;;;;;;;0.64;77.61;94757.81;5113019;28;20071;-70
2021/12/10 03:29:33;;;;;;;2.28;1.40;;;;;;;0.57;78.10;94749.34;5113033;28;20383;-70
2021/12/10 03:32:06;;;;;;;3.85;1.33;;;;;;;0.52;78.34;94755.63;5112869;28;20044;-70
2021/12/10 03:34:33;;;;;;;5.45;1.33;;;;;;;0.47;78.27;94760.22;5112973;28;20036;-70
2021/12/10 03:37:01;;;;;;;6.35;1.50;;;;;;;0.41;78.35;94753.38;5113024;28;20589;-70
2021/12/10 03:39:28;;;;;;;4.60;1.63;;;;;;;0.35;78.44;94754.56;5112666;28;20114;-70
2021/12/10 03:41:57;;;;;;;4.50;1.10;;;;;;;0.28;78.65;94748.78;5112506;28;20039;-72
2021/12/10 03:44:24;;;;;;;2.88;1.20;;;;;;;0.25;78.57;94747.47;5110532;28;20044;-72
2021/12/10 03:46:53;;;;;;;6.10;1.60;;;;;;;0.20;78.76;94740.31;5112826;28;20035;-70
2021/12/10 03:49:21;;;;;;;5.40;1.38;;;;;;;0.14;78.97;94738.81;5111900;28;20046;-72
2021/12/10 03:51:48;;;;;;;6.38;1.35;;;;;;;0.10;79.10;94728.97;5112825;28;20043;-72
2021/12/10 03:54:17;;;;;;;3.45;1.40;;;;;;;0.08;79.30;94723.91;5112158;28;20047;-72
2021/12/10 03:56:46;;;;;;;4.20;1.67;;;;;;;0.08;79.29;94715.88;5112685;28;20070;-72
2021/12/10 03:59:16;;;;;;;4.90;1.50;;;;;;;0.04;79.10;94711.41;5112105;28;20047;-72
2021/12/10 04:01:46;;;;;;;5.90;1.80;;;;;;;0.02;78.86;94710.91;5112416;28;20048;-72
2021/12/10 04:04:17;;;;;;;3.95;1.67;;;;;;;-0.02;78.67;94700.78;5112159;28;20043;-72
2021/12/10 04:06:46;;;;;;;3.40;1.65;;;;;;;-0.06;78.59;94698.97;5112187;28;20052;-71
2021/12/10 04:09:13;;;;;;;5.68;2.10;;;;;;;-0.08;78.63;94698.47;5111712;28;20048;-71
2021/12/10 04:11:40;;;;;;;4.20;1.80;;;;;;;-0.12;78.44;94700.13;5112446;28;20054;-72
2021/12/10 04:14:07;;;;;;;3.92;1.83;;;;;;;-0.14;78.50;94691.63;5125525;27;20051;-71
2021/12/10 04:16:35;;;;;;;4.93;1.88;;;;;;;-0.16;78.29;94683.88;5132964;27;20410;-72
2021/12/10 04:19:04;;;;;;;4.88;2.05;;;;;;;-0.20;78.23;94685.56;5132139;27;20054;-71
2021/12/10 04:21:31;;;;;;;4.72;2.03;;;;;;;-0.24;77.87;94675.72;5132776;27;20043;-72
2021/12/10 04:23:59;;;;;;;3.83;2.10;;;;;;;-0.28;78.22;94673.63;5132455;27;20063;-70
2021/12/10 04:26:28;;;;;;;5.18;2.95;;;;;;;-0.29;78.17;94664.00;5132196;27;20047;-70
2021/12/10 04:28:54;;;;;;;5.82;2.63;;;;;;;-0.30;78.40;94673.13;5132236;27;20137;-72
2021/12/10 04:31:21;;;;;;;5.50;2.63;;;;;;;-0.32;78.60;94669.94;5131902;27;20413;-70
2021/12/10 04:33:48;;;;;;;9.65;4.07;;;;;;;-0.37;78.72;94661.97;5132533;27;20039;-70
2021/12/10 04:36:15;;;;;;;7.32;3.20;;;;;;;-0.38;78.89;94660.41;5131830;27;20497;-69
2021/12/10 04:38:42;;;;;;;6.22;3.28;;;;;;;-0.39;78.98;94653.47;5132270;27;20067;-69
2021/12/10 04:41:12;;;;;;;8.48;4.40;;;;;;;-0.40;78.92;94657.22;5131863;27;20130;-71
2021/12/10 04:43:40;;;;;;;9.57;4.28;;;;;;;-0.42;79.01;94653.25;5130663;27;20043;-70
2021/12/10 04:46:07;;;;;;;8.15;4.35;;;;;;;-0.45;79.00;94654.63;5131768;27;20047;-71
2021/12/10 04:48:45;;;;;;;12.35;4.65;;;;;;;-0.47;79.11;94651.47;5132382;27;20039;-72
2021/12/10 04:51:12;;;;;;;9.27;4.82;;;;;;;-0.48;79.32;94649.84;5131787;27;20074;-72
2021/12/10 04:53:38;;;;;;;9.20;4.70;;;;;;;-0.49;79.30;94637.56;5132016;27;20050;-72
2021/12/10 04:56:05;;;;;;;9.27;5.13;;;;;;;-0.51;79.51;94639.75;5131605;27;20043;-71
2021/12/10 04:58:33;;;;;;;10.98;5.93;;;;;;;-0.54;79.60;94630.41;5132165;27;20047;-72
2021/12/10 05:01:02;;;;;;;11.82;5.50;;;;;;;-0.54;79.55;94632.28;5131743;27;20043;-72
2021/12/10 05:03:28;;;;;;;13.32;6.25;;;;;;;-0.57;79.79;94620.31;5131788;27;20109;-72
2021/12/10 05:06:00;;;;;;;13.15;6.13;;;;;;;-0.59;79.79;94619.00;5131828;27;20042;-72
2021/12/10 05:08:26;;;;;;;12.05;6.30;;;;;;;-0.59;79.72;94619.00;5131532;27;20047;-72
2021/12/10 05:10:53;;;;;;;12.55;6.40;;;;;;;-0.60;79.75;94614.75;5131922;27;20039;-72
2021/12/10 05:13:20;;;;;;;11.60;5.90;;;;;;;-0.66;79.48;94610.56;5130214;27;20043;-72
2021/12/10 05:15:54;;;;;;;13.15;6.35;;;;;;;-0.68;79.49;94618.06;5131789;27;20066;-71
2021/12/10 05:18:20;;;;;;;12.25;6.60;;;;;;;-0.71;79.39;94605.28;5131414;28;20066;-72
2021/12/10 05:20:48;;;;;;;12.50;6.90;;;;;;;-0.73;79.46;94604.75;5131636;28;20043;-72
2021/12/10 05:23:15;;;;;;;14.23;6.85;;;;;;;-0.74;79.59;94593.28;5131087;28;20039;-72
2021/12/10 05:25:43;;;;;;;12.38;6.22;;;;;;;-0.75;79.75;94596.25;5131813;28;20422;-71
2021/12/10 05:28:09;;;;;;;12.90;6.40;;;;;;;-0.77;79.87;94587.75;5131157;28;20603;-72
2021/12/10 05:30:36;;;;;;;12.82;6.65;;;;;;;-0.81;79.82;94588.31;5131808;28;20046;-72
2021/12/10 05:33:05;;;;;;;13.88;6.70;;;;;;;-0.85;80.03;94576.59;5131133;28;20043;-72
2021/12/10 05:35:33;;;;;;;15.50;6.95;;;;;;;-0.89;80.10;94574.78;5131325;28;20078;-71
2021/12/10 05:38:02;;;;;;;13.75;6.70;;;;;;;-0.95;80.10;94566.06;5131538;27;20046;-72
2021/12/10 05:40:28;;;;;;;13.35;6.35;;;;;;;-1.01;80.16;94558.41;5134331;27;20108;-71
2021/12/10 05:42:55;;;;;;;12.45;5.55;;;;;;;-1.05;80.27;94556.31;5130541;27;20051;-72
2021/12/10 05:45:24;;;;;;;11.98;6.13;;;;;;;-1.09;80.33;94554.53;5114577;28;20638;-71
2021/12/10 05:47:51;;;;;;;10.85;5.32;;;;;;;-1.16;80.36;94554.06;5115033;28;20047;-72
2021/12/10 05:50:22;;;;;;;11.77;5.38;;;;;;;-1.21;80.56;94556.81;5114476;28;20044;-72
2021/12/10 05:52:49;;;;;;;12.00;5.43;;;;;;;-1.26;80.73;94564.88;5115117;28;20032;-72
2021/12/10 05:55:16;;;;;;;15.32;5.03;;;;;;;-1.26;80.83;94570.22;5114407;28;20044;-71
2021/12/10 05:57:43;;;;;;;11.50;4.93;;;;;;;-1.26;80.94;94562.22;5114574;28;20051;-71
2021/12/10 06:00:15;;;;;;;13.57;5.03;;;;;;;-1.26;81.11;94554.19;5114375;28;20522;-72
2021/12/10 06:02:42;;;;;;;7.18;3.92;;;;;;;-1.32;81.11;94551.59;5114655;28;20040;-72
2021/12/10 06:05:09;;;;;;;12.68;5.35;;;;;;;-1.36;81.11;94547.09;5114335;28;20084;-71
2021/12/10 06:07:38;;;;;;;10.10;5.15;;;;;;;-1.40;81.25;94538.91;5114725;28;20066;-71
2021/12/10 06:10:06;;;;;;;8.40;4.70;;;;;;;-1.40;81.28;94538.09;5114419;28;20051;-72
2021/12/10 06:12:32;;;;;;;10.90;5.55;;;;;;;-1.42;81.44;94538.38;5114576;27;20043;-72
2021/12/10 06:14:59;;;;;;;10.40;5.60;;;;;;;-1.48;81.22;94523.50;5134982;27;20043;-72
2021/12/10 06:17:26;;;;;;;10.88;5.78;;;;;;;-1.50;81.31;94525.69;5134379;27;20047;-72
2021/12/10 06:19:52;;;;;;;12.63;5.55;;;;;;;-1.51;81.29;94521.44;5134851;27;20043;-72
2021/12/10 06:22:19;;;;;;;8.93;5.00;;;;;;;-1.52;81.31;94525.16;5134379;27;20525;-72
2021/12/10 06:24:47;;;;;;;14.98;5.88;;;;;;;-1.52;81.29;94525.16;5134780;27;20039;-72
2021/12/10 06:27:13;;;;;;;10.63;4.63;;;;;;;-1.55;81.27;94533.75;5134332;27;20043;-72
2021/12/10 06:29:41;;;;;;;11.13;5.53;;;;;;;-1.58;81.25;94526.31;5134987;27;20054;-70
2021/12/10 06:32:08;;;;;;;8.90;5.18;;;;;;;-1.59;81.35;94524.72;5134132;27;20051;-70
2021/12/10 06:34:36;;;;;;;9.93;5.10;;;;;;;-1.61;81.19;94510.88;5128536;27;20074;-70
2021/12/10 06:37:04;;;;;;;13.90;5.68;;;;;;;-1.62;81.15;94503.94;5110268;28;20461;-70
2021/12/10 06:39:31;;;;;;;10.52;5.43;;;;;;;-1.64;81.25;94508.78;5110762;28;20513;-69
2021/12/10 06:41:59;;;;;;;8.43;5.55;;;;;;;-1.64;81.02;94495.44;5110599;28;20047;-70
2021/12/10 06:44:25;;;;;;;8.35;5.30;;;;;;;-1.65;81.27;94491.16;5126768;27;20043;-70
2021/12/10 06:46:52;;;;;;;12.30;5.75;;;;;;;-1.66;81.33;94486.91;5131119;27;20043;-70
2021/12/10 06:49:19;;;;;;;9.55;6.05;;;;;;;-1.68;81.24;94473.84;5130706;27;20051;-70
2021/12/10 06:51:46;;;;;;;10.52;6.00;;;;;;;-1.71;81.11;94468.31;5130712;27;20050;-73
2021/12/10 06:54:13;;;;;;;11.30;6.50;;;;;;;-1.74;81.02;94469.66;5130942;27;20055;-72
2021/12/10 06:56:40;;;;;;;10.35;6.25;;;;;;;-1.76;80.99;94465.69;5131124;27;20043;-71
2021/12/10 06:59:09;;;;;;;14.23;6.75;;;;;;;-1.76;81.10;94463.03;5130527;27;20043;-71
2021/12/10 07:01:38;;;;;;;10.48;6.43;;;;;;;-1.76;81.23;94455.81;5130589;27;20050;-71
2021/12/10 07:04:09;;;;;;;12.00;6.80;;;;;;;-1.76;81.27;94449.69;5130086;27;20055;-71
2021/12/10 07:06:37;;;;;;;14.02;7.32;;;;;;;-1.78;81.51;94441.94;5130862;27;20054;-72
2021/12/10 07:09:08;;;;;;;13.15;7.68;;;;;;;-1.78;81.40;94438.50;5129528;27;20047;-71
2021/12/10 07:11:35;;;;;;;13.77;7.65;;;;;;;-1.81;81.35;94434.53;5131197;27;20058;-72
2021/12/10 07:14:01;;;;;;;12.75;7.10;;;;;;;-1.82;81.37;94429.50;5129747;27;20046;-72
2021/12/10 07:16:30;;;;;;;14.30;7.40;;;;;;;-1.82;81.41;94432.16;5130244;27;20042;-71
2021/12/10 07:18:59;;;;;;;14.50;7.20;;;;;;;-1.82;81.34;94424.97;5130613;27;20047;-71
2021/12/10 07:21:29;;;;;;;13.88;6.80;;;;;;;-1.82;81.41;94421.50;5130038;27;20410;-71
2021/12/10 07:23:55;;;;;;;12.45;7.47;;;;;;;-1.82;81.47;94418.84;5130488;27;20062;-72
2021/12/10 07:26:22;;;;;;;13.38;7.00;;;;;;;-1.79;81.30;94418.25;5129796;27;20051;-72
2021/12/10 07:28:49;;;;;;;14.27;7.85;;;;;;;-1.77;81.49;94418.75;5130221;27;20791;-72
2021/12/10 07:31:16;;;;;;;13.20;7.43;;;;;;;-1.78;81.48;94415.28;5130253;27;20051;-71
2021/12/10 07:33:44;;;;;;;12.90;7.07;;;;;;;-1.75;81.50;94419.25;5130529;27;20047;-72
2021/12/10 07:36:11;;;;;;;17.13;7.47;;;;;;;-1.77;81.28;94418.75;5129907;27;20055;-71
2021/12/10 07:38:38;;;;;;;11.48;6.80;;;;;;;-1.78;81.56;94414.47;5129856;27;20046;-71
2021/12/10 07:41:07;;;;;;;10.63;6.28;;;;;;;-1.74;81.53;94412.84;5129917;27;20051;-71
2021/12/10 07:43:33;;;;;;;11.23;6.60;;;;;;;-1.73;81.52;94403.75;5128582;27;20073;-71
2021/12/10 07:46:00;;;;;;;12.10;6.82;;;;;;;-1.76;81.13;94399.00;5130177;27;20043;-72
2021/12/10 07:48:28;;;;;;;11.88;6.60;;;;;;;-1.75;81.23;94389.91;5129797;27;20054;-72
2021/12/10 07:50:59;;;;;;;12.82;6.80;;;;;;;-1.77;81.46;94392.09;5130184;27;20046;-72
2021/12/10 07:53:28;;;;;;;11.13;6.80;;;;;;;-1.77;81.38;94392.09;5129640;27;20087;-74
2021/12/10 07:55:55;;;;;;;15.13;6.70;;;;;;;-1.76;81.26;94396.34;5129858;27;20062;-73
2021/12/10 07:58:22;;;;;;;12.15;6.85;;;;;;;-1.70;81.43;94389.84;5129332;27;20138;-72
2021/12/10 08:00:49;;;;;;;10.85;6.50;;;;;;;-1.40;81.14;94394.72;5129823;27;20040;-73
2021/12/10 08:03:17;;;;;;;11.90;6.28;;;;;;;-0.89;80.78;94382.41;5126505;27;20391;-71
2021/12/10 08:05:44;;;;;;;9.98;6.15;;;;;;;-0.48;78.21;94387.81;5108210;28;20553;-72
2021/12/10 08:08:12;;;;;;;7.22;4.70;;;;;;;-0.10;76.44;94376.94;5108062;28;20557;-72
2021/12/10 08:10:41;;;;;;;9.23;5.13;;;;;;;0.34;74.91;94375.47;5108676;28;20058;-72
2021/12/10 08:13:07;;;;;;;8.77;5.05;;;;;;;0.57;72.21;94379.75;5107990;28;20070;-71
2021/12/10 08:15:34;;;;;;;9.73;4.32;;;;;;;0.59;71.05;94382.16;5108939;28;20047;-72
2021/12/10 08:18:01;;;;;;;10.90;5.05;;;;;;;0.55;71.63;94371.22;5108359;28;20047;-73
2021/12/10 08:20:28;;;;;;;7.50;4.47;;;;;;;0.46;71.25;94367.69;5108598;28;20067;-73
2021/12/10 08:22:55;;;;;;;8.38;4.53;;;;;;;0.40;71.25;94367.00;5108530;28;20043;-72
2021/12/10 08:25:26;;;;;;;11.27;5.50;;;;;;;0.29;71.24;94362.97;5107770;28;20070;-72
2021/12/10 08:27:54;;;;;;;8.18;5.10;;;;;;;0.12;71.32;94363.63;5108564;28;20058;-73
2021/12/10 08:30:23;;;;;;;8.60;5.28;;;;;;;-0.03;71.97;94361.25;5108058;28;20055;-73
2021/12/10 08:32:53;;;;;;;8.20;4.80;;;;;;;-0.05;72.82;94350.88;5108419;28;20036;-72
2021/12/10 08:35:21;;;;;;;12.90;5.30;;;;;;;-0.08;72.81;94353.34;5107932;28;20076;-72
2021/12/10 08:37:48;;;;;;;9.80;5.20;;;;;;;-0.11;73.04;94353.94;5108045;28;20526;-73
2021/12/10 08:40:18;;;;;;;9.43;4.88;;;;;;;-0.16;73.03;94356.72;5107867;28;20395;-73
2021/12/10 08:42:46;;;;;;;8.35;4.57;;;;;;;-0.23;73.58;94356.31;5107872;28;20040;-73
2021/12/10 08:45:13;;;;;;;8.65;4.75;;;;;;;-0.34;73.57;94348.50;5107346;28;20058;-73
2021/12/10 08:47:39;;;;;;;7.82;4.93;;;;;;;-0.35;73.73;94349.59;5108255;28;20035;-72
2021/12/10 08:50:09;;;;;;;7.20;4.88;;;;;;;-0.41;74.06;94348.13;5107591;28;20059;-73
2021/12/10 08:52:35;;;;;;;7.50;4.63;;;;;;;-0.44;74.40;94340.69;5108588;28;20050;-72
2021/12/10 08:55:03;;;;;;;10.23;6.07;;;;;;;-0.46;74.94;94342.88;5107570;28;20063;-72
2021/12/10 08:57:30;;;;;;;9.73;4.32;;;;;;;-0.45;74.79;94336.44;5107885;28;20490;-71
2021/12/10 08:59:58;;;;;;;6.60;4.20;;;;;;;-0.45;74.27;94332.97;5107852;28;20051;-71
2021/12/10 09:02:25;;;;;;;7.93;4.90;;;;;;;-0.43;74.40;94325.44;5107599;28;20050;-71
2021/12/10 09:04:51;;;;;;;13.38;6.63;;;;;;;-0.42;74.50;94319.78;5108469;28;20048;-72
2021/12/10 09:07:19;;;;;;;10.93;5.88;;;;;;;-0.42;74.33;94321.66;5107210;28;20054;-72
2021/12/10 09:09:47;;;;;;;8.23;4.43;;;;;;;-0.39;74.42;94311.16;5108094;28;20145;-72
2021/12/10 09:12:17;;;;;;;9.73;5.10;;;;;;;-0.32;74.57;94311.53;5107142;28;20078;-73
2021/12/10 09:14:49;;;;;;;6.68;3.65;;;;;;;-0.20;74.06;94312.94;5127049;27;20458;-73
2021/12/10 09:17:23;;;;;;;6.57;3.80;;;;;;;-0.02;73.75;94309.31;5111913;27;20055;-72
2021/12/10 09:19:51;;;;;;;6.47;3.95;;;;;;;0.14;73.40;94302.53;5108089;28;20047;-73
2021/12/10 09:22:18;;;;;;;6.85;3.50;;;;;;;0.20;72.80;94304.00;5107327;28;20055;-73
2021/12/10 09:24:45;;;;;;;4.47;2.97;;;;;;;0.28;72.11;94293.69;5107012;28;20055;-72
2021/12/10 09:27:12;;;;;;;6.50;3.20;;;;;;;0.34;71.56;94295.16;5106741;28;20051;-73
2021/12/10 09:29:45;;;;;;;5.32;3.15;;;;;;;0.48;71.90;94285.19;5107747;28;20058;-72
2021/12/10 09:32:16;;;;;;;5.80;3.20;;;;;;;0.60;71.32;94282.72;5107312;28;20521;-71
2021/12/10 09:34:44;;;;;;;5.57;3.50;;;;;;;0.67;70.87;94283.09;5107779;28;20040;-72
2021/12/10 09:37:12;;;;;;;8.07;3.67;;;;;;;0.74;70.77;94280.78;5106891;28;20062;-73
2021/12/10 09:39:39;;;;;;;6.82;3.92;;;;;;;0.87;70.50;94275.63;5107404;28;20060;-73
2021/12/10 09:42:07;;;;;;;7.80;3.88;;;;;;;1.07;70.58;94268.97;5106979;28;20043;-71
2021/12/10 09:44:34;;;;;;;6.63;3.90;;;;;;;1.35;69.75;94269.53;5125313;28;20046;-72
2021/12/10 09:47:01;;;;;;;6.68;3.83;;;;;;;1.63;69.85;94268.22;5128082;28;20047;-73
2021/12/10 09:49:28;;;;;;;11.07;4.20;;;;;;;1.90;67.44;94267.16;5127994;28;20133;-72
2021/12/10 09:51:58;;;;;;;9.18;5.25;;;;;;;2.04;67.44;94259.75;5128229;28;20054;-71
2021/12/10 09:54:27;;;;;;;7.10;3.75;;;;;;;2.07;65.68;94261.00;5127971;28;20039;-72
2021/12/10 09:57:01;;;;;;;8.55;3.83;;;;;;;2.15;65.75;94252.19;5127976;28;20071;-72
2021/12/10 09:59:28;;;;;;;5.38;3.47;;;;;;;2.20;65.32;94245.88;5127667;28;20058;-71
2021/12/10 10:01:57;;;;;;;4.68;3.20;;;;;;;2.29;65.35;94233.97;5128140;28;20047;-72
2021/12/10 10:04:26;;;;;;;6.13;3.55;;;;;;;2.47;64.87;94228.63;5127676;28;20578;-71
2021/12/10 10:06:58;;;;;;;6.80;4.20;;;;;;;2.68;66.05;94223.38;5111498;28;20036;-71
2021/12/10 10:09:25;;;;;;;6.97;3.28;;;;;;;2.87;63.93;94208.44;5106777;28;20074;-71
2021/12/10 10:11:56;;;;;;;4.93;2.88;;;;;;;2.87;62.61;94221.06;5107594;28;20051;-71
2021/12/10 10:14:23;;;;;;;5.80;3.10;;;;;;;2.73;62.86;94218.59;5106489;28;20054;-71
2021/12/10 10:16:51;;;;;;;5.28;3.35;;;;;;;2.58;63.13;94213.75;5107270;28;20058;-71
2021/12/10 10:19:18;;;;;;;7.35;3.40;;;;;;;2.40;63.84;94212.19;5106582;28;20051;-71
2021/12/10 10:21:49;;;;;;;7.18;3.60;;;;;;;2.35;64.42;94203.19;5107315;28;20130;-71
2021/12/10 10:24:18;;;;;;;7.65;3.85;;;;;;;2.35;65.28;94197.81;5107175;28;20064;-71
2021/12/10 10:26:49;;;;;;;6.22;3.58;;;;;;;2.28;64.77;94189.44;5110362;28;20047;-71
2021/12/10 10:29:19;;;;;;;6.78;3.97;;;;;;;2.27;65.31;94195.94;5110766;28;20048;-72
2021/12/10 10:31:52;;;;;;;7.68;4.32;;;;;;;2.34;65.68;94196.22;5110792;28;20051;-74
2021/12/10 10:34:20;;;;;;;6.13;3.55;;;;;;;2.43;64.81;94190.84;5090272;28;20048;-71
2021/12/10 10:36:47;;;;;;;6.15;3.70;;;;;;;2.47;64.54;94191.00;5104560;28;20047;-71
2021/12/10 10:39:18;;;;;;;7.03;4.20;;;;;;;2.49;64.51;94178.81;5110390;28;20047;-71
2021/12/10 10:41:47;;;;;;;7.50;3.80;;;;;;;2.46;64.37;94174.09;5111003;28;20055;-72
2021/12/10 10:44:15;;;;;;;6.45;3.72;;;;;;;2.51;64.44;94167.78;5109877;28;20054;-72
2021/12/10 10:46:41;;;;;;;6.22;3.80;;;;;;;2.45;64.12;94166.34;5110549;28;20102;-72
2021/12/10 10:49:08;;;;;;;5.30;3.72;;;;;;;2.34;64.79;94160.53;5110391;28;20498;-72
2021/12/10 10:51:37;;;;;;;6.18;3.70;;;;;;;2.34;65.15;94150.56;5110845;28;20039;-72
2021/12/10 10:54:12;;;;;;;8.38;4.05;;;;;;;2.32;65.28;94135.91;5110313;28;20055;-70
2021/12/10 10:56:42;;;;;;;7.53;4.00;;;;;;;2.33;65.00;94127.50;5110593;28;20054;-72
2021/12/10 10:59:20;;;;;;;6.57;3.67;;;;;;;2.37;65.91;94111.56;5110150;28;20052;-71
2021/12/10 11:01:57;;;;;;;6.35;3.60;;;;;;;2.35;65.41;94106.50;5110672;28;20071;-72
2021/12/10 11:04:28;;;;;;;6.25;3.65;;;;;;;2.28;66.32;94095.44;5110374;28;20065;-72
2021/12/10 11:06:58;;;;;;;4.82;3.50;;;;;;;2.25;66.62;94087.28;5110168;28;20093;-71
2021/12/10 11:09:28;;;;;;;7.15;4.03;;;;;;;2.29;66.78;94088.97;5109970;28;20059;-72
2021/12/10 11:11:59;;;;;;;5.65;3.03;;;;;;;2.31;66.57;94085.97;5110102;28;20044;-72
2021/12/10 11:14:28;;;;;;;6.90;3.40;;;;;;;2.26;66.16;94073.50;5126390;27;20036;-72
2021/12/10 11:17:04;;;;;;;7.20;3.50;;;;;;;2.24;66.27;94081.09;5130451;27;20049;-73
2021/12/10 11:19:31;;;;;;;6.03;3.53;;;;;;;2.22;66.35;94093.28;5130494;27;20039;-71
2021/12/10 11:22:00;;;;;;;7.57;3.60;;;;;;;2.23;66.58;94092.16;5121907;27;20044;-72
2021/12/10 11:24:37;;;;;;;5.95;3.90;;;;;;;2.18;66.58;94103.06;5121429;27;20080;-72
2021/12/10 11:27:09;;;;;;;6.22;3.17;;;;;;;2.17;66.76;94123.75;5130096;27;20070;-71
2021/12/10 11:29:41;;;;;;;5.35;3.47;;;;;;;2.25;66.08;94114.91;5130416;27;20047;-71
2021/12/10 11:32:11;;;;;;;5.05;3.40;;;;;;;2.22;66.51;94126.28;5129861;27;20054;-72
2021/12/10 11:34:54;;;;;;;6.15;3.75;;;;;;;2.30;66.99;94117.44;5130648;27;20055;-72
2021/12/10 11:37:44;;;;;;;5.25;3.58;;;;;;;2.41;66.28;94111.72;5128431;27;20058;-72
2021/12/10 11:40:27;;;;;;;6.28;3.80;;;;;;;2.49;66.11;94116.25;5130214;27;20505;-71
2021/12/10 11:43:00;;;;;;;6.13;3.72;;;;;;;2.48;65.08;94112.00;5125078;27;20048;-71
2021/12/10 11:45:33;;;;;;;7.00;3.95;;;;;;;2.55;67.05;94104.22;5109568;28;20051;-72
2021/12/10 11:48:11;;;;;;;5.43;3.38;;;;;;;2.62;66.44;94107.22;5109650;28;20054;-72
2021/12/10 11:50:41;;;;;;;6.75;3.50;;;;;;;2.67;65.41;94095.50;5109191;28;20047;-72
2021/12/10 11:53:11;;;;;;;5.32;3.30;;;;;;;2.65;65.24;94095.00;5109066;28;20632;-71